KFEP/FEP METAR and TAF weather

Enter ICAO airport designator
Station Type Date Time Source
KFEP METAR 2020/12/05 05:55 UTC NOAA

KFEP 050555Z AUTO 00000KT 10SM CLR M04/M05 A3010 RMK AO2 T10411053 10015 21061 400641061


Station Type Date Time Source
KFEP Decoded METAR 2020/12/05 05:55 UTC NOAA

Freeport, Albertus Airport, IL, United States (KFEP) 42-14-47N 089-34-56W
Dec 05, 2020 - 12:55 AM EST / 2020.12.05 0555 UTC
Wind: Calm:0
Visibility: 10 mile(s):0
Sky conditions: clear
Temperature: 24.6 F (-4.1 C)
Dew Point: 22.5 F (-5.3 C)
Relative Humidity: 91%
Pressure (altimeter): 30.1 in. Hg (1019 hPa)
ob: KFEP 050555Z AUTO 00000KT 10SM CLR M04/M05 A3010 RMK AO2 T10411053 10015 21061 400641061
cycle: 6

Station Type Date Time Source
KFEP TAF UTC NOAA

Error!

Example: see airport list